Time;durP1;ratioP1;P1;durP2;ratioP2;P2;SDS_P1;SDS_P2;PMS_P1;PMS_P2;Temp;Humidity;BMP_temperature;BMP_pressure;BME280_temperature;BME280_humidity;BME280_pressure;Samples;Min_cycle;Max_cycle;Signal;HPM_P1;HPM_P2
2024/01/12 00:01:50;;;;;;;2.17;2.08;;;;;;;-2.17;96.17;101504.34;4988843;28;20675;-66
2024/01/12 00:04:16;;;;;;;2.20;2.10;;;;;;;-2.19;96.96;101519.06;4989496;28;20034;-65
2024/01/12 00:06:41;;;;;;;2.30;2.20;;;;;;;-2.24;96.94;101515.38;4974783;28;20033;-65
2024/01/12 00:09:07;;;;;;;2.10;2.00;;;;;;;-2.26;96.58;101517.03;4970848;28;20027;-66
2024/01/12 00:11:32;;;;;;;2.20;2.10;;;;;;;-2.30;96.93;101516.00;4970229;28;20041;-65
2024/01/12 00:13:58;;;;;;;2.17;2.08;;;;;;;-2.30;96.38;101516.00;4970171;28;20113;-65
2024/01/12 00:16:23;;;;;;;2.30;2.20;;;;;;;-2.33;96.60;101525.41;4986313;28;20033;-66
2024/01/12 00:18:48;;;;;;;2.10;2.00;;;;;;;-2.36;97.18;101525.28;4989021;28;20031;-65
2024/01/12 00:21:14;;;;;;;2.00;1.90;;;;;;;-2.39;97.40;101530.34;4989059;28;20042;-65
2024/01/12 00:23:39;;;;;;;2.30;2.20;;;;;;;-2.47;97.38;101531.75;4987438;28;20044;-65
2024/01/12 00:26:05;;;;;;;2.10;2.00;;;;;;;-2.76;97.08;101453.25;4971074;28;20105;-65
2024/01/12 00:28:33;;;;;;;2.20;2.10;;;;;;;-2.42;96.82;101518.06;4971448;28;20054;-65
2024/01/12 00:30:58;;;;;;;2.10;2.00;;;;;;;-2.44;97.15;101524.06;4972503;28;20042;-65
2024/01/12 00:33:24;;;;;;;2.15;2.05;;;;;;;-2.40;97.34;101523.34;4978185;28;20023;-65
2024/01/12 00:35:49;;;;;;;2.20;2.10;;;;;;;-2.42;97.24;101522.41;4989147;28;20081;-65
2024/01/12 00:38:15;;;;;;;2.20;2.10;;;;;;;-2.96;96.88;101453.19;4990289;28;20036;-64
2024/01/12 00:40:40;;;;;;;2.20;2.10;;;;;;;-2.48;96.60;101529.94;4986683;28;20041;-65
2024/01/12 00:43:07;;;;;;;2.10;2.00;;;;;;;-2.49;97.53;101533.38;4990278;28;20030;-64
2024/01/12 00:45:33;;;;;;;2.30;2.20;;;;;;;-2.57;97.57;101519.13;5007960;28;20025;-65
2024/01/12 00:47:58;;;;;;;2.20;2.10;;;;;;;-2.51;97.17;101535.03;4999168;28;20026;-65
2024/01/12 00:50:24;;;;;;;2.20;2.10;;;;;;;-2.53;96.94;101532.34;4981588;28;20038;-64
2024/01/12 00:52:49;;;;;;;2.30;2.20;;;;;;;-2.57;96.79;101521.75;4970807;28;20037;-65
2024/01/12 00:55:14;;;;;;;2.30;2.20;;;;;;;-2.63;98.00;101513.63;4970584;28;20048;-76
2024/01/12 00:57:40;;;;;;;2.22;2.13;;;;;;;-2.55;98.01;101535.72;4972513;28;20047;-78
2024/01/12 01:00:06;;;;;;;2.30;2.20;;;;;;;-2.56;97.00;101540.03;4969763;28;20041;-77
2024/01/12 01:02:31;;;;;;;2.30;2.20;;;;;;;-2.56;97.59;101539.13;4971537;28;20035;-76
2024/01/12 01:04:57;;;;;;;2.10;2.00;;;;;;;-2.57;97.67;101539.97;4969653;28;20634;-75
2024/01/12 01:07:22;;;;;;;2.30;2.20;;;;;;;-2.72;97.56;101519.38;4968819;28;20030;-78
2024/01/12 01:09:48;;;;;;;2.30;2.20;;;;;;;-2.64;98.13;101532.72;4996113;28;20036;-76
2024/01/12 01:12:14;;;;;;;2.30;2.20;;;;;;;-2.67;98.15;101532.56;4979830;28;20022;-75
2024/01/12 01:14:39;;;;;;;2.30;2.20;;;;;;;-2.67;98.37;101539.56;4969032;28;20026;-75
2024/01/12 01:17:05;;;;;;;2.20;2.10;;;;;;;-2.73;98.27;101522.78;4974373;28;20133;-77
2024/01/12 01:19:30;;;;;;;2.50;2.40;;;;;;;-2.64;97.97;101544.03;4987705;28;20038;-74
2024/01/12 01:21:56;;;;;;;2.30;2.20;;;;;;;-2.93;98.05;101493.25;4988632;28;20699;-76
2024/01/12 01:24:21;;;;;;;2.28;2.17;;;;;;;-2.60;98.50;101539.84;4987244;28;20057;-77
2024/01/12 01:26:47;;;;;;;2.40;2.30;;;;;;;-2.58;98.54;101535.56;4969943;28;20081;-77
2024/01/12 01:29:12;;;;;;;2.30;2.20;;;;;;;-2.81;98.24;101487.69;4969553;28;20023;-76
2024/01/12 01:31:37;;;;;;;2.40;2.30;;;;;;;-2.43;98.17;101546.66;4952512;28;20552;-76
2024/01/12 01:34:03;;;;;;;2.30;2.20;;;;;;;-2.33;98.26;101535.81;4977047;28;20596;-75
2024/01/12 01:36:28;;;;;;;2.20;2.10;;;;;;;-2.24;99.04;101541.44;5006552;28;20048;-76
2024/01/12 01:38:54;;;;;;;2.20;2.10;;;;;;;-2.17;98.68;101538.25;4997652;28;20041;-75
2024/01/12 01:41:19;;;;;;;2.30;2.20;;;;;;;-2.06;98.96;101534.38;4988292;28;20022;-75
2024/01/12 01:43:44;;;;;;;2.20;2.10;;;;;;;-1.97;98.90;101538.25;4997542;28;20727;-75
2024/01/12 01:46:10;;;;;;;2.10;2.00;;;;;;;-1.90;99.09;101540.31;4987660;28;20088;-74
2024/01/12 01:48:35;;;;;;;2.10;2.00;;;;;;;-1.86;99.60;101541.31;4988102;28;20085;-74
2024/01/12 01:51:02;;;;;;;2.10;2.00;;;;;;;-2.12;99.20;101489.81;4975510;28;20034;-76
2024/01/12 01:53:28;;;;;;;2.20;2.10;;;;;;;-1.85;98.72;101544.00;4977940;28;20041;-77
2024/01/12 01:55:54;;;;;;;2.20;2.10;;;;;;;-1.86;99.21;101533.50;4994306;28;20038;-74
2024/01/12 01:58:19;;;;;;;2.20;2.10;;;;;;;-1.88;99.39;101546.44;4989651;28;20019;-76
2024/01/12 02:00:47;;;;;;;2.30;2.20;;;;;;;-1.99;99.42;101528.56;4989791;28;20038;-75
2024/01/12 02:03:13;;;;;;;2.20;2.10;;;;;;;-1.86;98.79;101542.19;4974769;28;20030;-76
2024/01/12 02:05:40;;;;;;;2.20;2.10;;;;;;;-1.95;99.51;101520.97;4972044;28;20062;-76
2024/01/12 02:08:06;;;;;;;2.20;2.10;;;;;;;-1.84;99.07;101534.44;4969218;28;20479;-78
2024/01/12 02:10:32;;;;;;;2.20;2.10;;;;;;;-1.80;99.18;101538.97;4968962;28;20034;-78
2024/01/12 02:12:57;;;;;;;2.20;2.10;;;;;;;-1.78;99.70;101543.38;4967217;28;20394;-77
2024/01/12 02:15:23;;;;;;;2.10;2.00;;;;;;;-1.72;99.67;101540.16;4983725;28;20675;-71
2024/01/12 02:17:48;;;;;;;2.10;2.00;;;;;;;-1.68;99.54;101536.84;4986436;28;20101;-77
2024/01/12 02:20:14;;;;;;;2.10;2.00;;;;;;;-1.93;99.89;101487.13;4986561;28;20026;-78
2024/01/12 02:22:39;;;;;;;2.10;2.00;;;;;;;-1.60;99.72;101540.66;4984291;28;20038;-77
2024/01/12 02:25:05;;;;;;;2.20;2.10;;;;;;;-1.55;100.00;101542.59;4976498;28;20030;-76
2024/01/12 02:27:31;;;;;;;2.00;1.90;;;;;;;-1.71;99.25;101510.63;4969088;28;20027;-78
2024/01/12 02:29:57;;;;;;;2.00;1.90;;;;;;;-1.47;99.71;101546.41;4968985;28;20514;-79
2024/01/12 02:32:23;;;;;;;2.10;2.00;;;;;;;-1.45;99.52;101543.88;4976403;28;20108;-78
2024/01/12 02:34:49;;;;;;;2.00;1.90;;;;;;;-1.50;99.62;101538.44;4986580;28;20088;-77
2024/01/12 02:37:14;;;;;;;1.90;1.80;;;;;;;-1.37;99.60;101547.69;4988187;28;20410;-77
2024/01/12 02:39:40;;;;;;;2.10;2.00;;;;;;;-1.36;99.43;101549.44;4964490;28;20038;-78
2024/01/12 02:42:05;;;;;;;2.00;1.90;;;;;;;-1.36;99.42;101545.13;4969686;28;20023;-78
2024/01/12 02:44:31;;;;;;;2.15;2.05;;;;;;;-1.34;99.15;101545.19;4969813;28;20420;-76
2024/01/12 02:46:56;;;;;;;2.08;1.98;;;;;;;-1.83;99.43;101456.25;4970415;28;20554;-77
2024/01/12 02:49:21;;;;;;;2.08;1.98;;;;;;;-1.34;99.35;101545.19;4968223;28;20031;-77
2024/01/12 02:51:47;;;;;;;2.00;1.90;;;;;;;-1.32;99.47;101547.00;4953015;28;20046;-76
2024/01/12 02:54:13;;;;;;;2.15;2.05;;;;;;;-1.28;99.46;101540.19;4984787;28;20034;-77
2024/01/12 02:56:38;;;;;;;2.10;2.00;;;;;;;-1.29;99.52;101543.66;4982991;28;20050;-77
2024/01/12 02:59:04;;;;;;;2.10;2.00;;;;;;;-1.29;98.91;101551.47;4987037;28;20410;-73
2024/01/12 03:01:29;;;;;;;2.00;1.90;;;;;;;-1.34;98.75;101555.63;4987796;28;20113;-79
2024/01/12 03:03:54;;;;;;;2.05;1.95;;;;;;;-1.68;98.39;101489.91;4987437;28;20027;-76
2024/01/12 03:06:20;;;;;;;2.20;2.10;;;;;;;-1.40;98.71;101550.16;4967221;28;20117;-79
2024/01/12 03:08:46;;;;;;;2.28;2.17;;;;;;;-1.73;98.76;101489.69;4986943;28;20093;-75
2024/01/12 03:11:11;;;;;;;2.20;2.10;;;;;;;-1.41;98.70;101543.16;4987312;28;20031;-78
2024/01/12 03:13:37;;;;;;;2.20;2.10;;;;;;;-1.75;99.20;101483.56;4985056;28;20085;-76
2024/01/12 03:16:06;;;;;;;2.20;2.10;;;;;;;-1.71;99.75;101484.53;4969216;28;20105;-76
2024/01/12 03:18:32;;;;;;;2.03;1.92;;;;;;;-1.43;99.22;101542.19;4967238;28;20019;-78
2024/01/12 03:20:58;;;;;;;2.30;2.20;;;;;;;-1.45;99.48;101542.13;4971549;28;20129;-76
2024/01/12 03:23:23;;;;;;;2.10;2.00;;;;;;;-1.49;99.57;101526.31;4984309;28;20034;-75
2024/01/12 03:25:49;;;;;;;2.08;1.98;;;;;;;-1.51;99.42;101520.13;4972813;28;20023;-76
2024/01/12 03:28:15;;;;;;;1.98;1.88;;;;;;;-1.54;98.71;101520.03;4973094;28;20030;-76
2024/01/12 03:30:40;;;;;;;2.10;2.00;;;;;;;-1.60;99.58;101509.34;4996042;28;20062;-77
2024/01/12 03:33:08;;;;;;;2.10;2.00;;;;;;;-1.66;99.91;101510.00;4987457;28;20040;-76
2024/01/12 03:35:35;;;;;;;2.15;2.05;;;;;;;-1.61;99.56;101516.28;4993104;28;20026;-76
2024/01/12 03:38:00;;;;;;;2.20;2.10;;;;;;;-1.63;99.55;101511.84;4991391;28;20054;-76
2024/01/12 03:40:26;;;;;;;2.20;2.10;;;;;;;-1.63;100.00;101514.47;4980836;28;20590;-76
2024/01/12 03:42:51;;;;;;;2.03;1.92;;;;;;;-1.68;100.00;101502.94;4992891;28;20037;-76
2024/01/12 03:45:16;;;;;;;2.20;2.10;;;;;;;-1.60;100.00;101522.41;4989740;28;20022;-75
2024/01/12 03:47:42;;;;;;;2.13;2.03;;;;;;;-1.53;100.00;101513.97;4990489;28;20566;-74
2024/01/12 03:50:09;;;;;;;2.17;2.08;;;;;;;-1.54;100.00;101506.97;4991271;28;20533;-76
2024/01/12 03:52:35;;;;;;;2.20;2.10;;;;;;;-1.52;100.00;101507.94;4956560;28;20407;-73
2024/01/12 03:55:00;;;;;;;2.40;2.30;;;;;;;-1.52;100.00;101502.72;4972426;28;20037;-76
2024/01/12 03:57:25;;;;;;;2.15;2.05;;;;;;;-1.55;100.00;101502.59;4974126;28;20047;-76
2024/01/12 03:59:51;;;;;;;2.30;2.20;;;;;;;-1.58;100.00;101502.44;4972396;28;20446;-75
2024/01/12 04:02:16;;;;;;;2.17;2.08;;;;;;;-1.57;100.00;101502.53;4971328;28;20023;-74
2024/01/12 04:04:42;;;;;;;2.20;2.10;;;;;;;-1.58;99.93;101508.56;4970016;28;20039;-76
2024/01/12 04:07:07;;;;;;;2.20;2.10;;;;;;;-1.57;100.00;101505.16;4970713;28;20047;-74
2024/01/12 04:09:33;;;;;;;2.22;2.13;;;;;;;-1.61;99.83;101508.47;4972921;28;20027;-75
2024/01/12 04:11:58;;;;;;;2.45;2.35;;;;;;;-1.60;99.67;101498.91;4986223;28;20797;-74
2024/01/12 04:14:24;;;;;;;2.40;2.30;;;;;;;-1.59;100.00;101511.13;4987841;28;20621;-76
2024/01/12 04:16:49;;;;;;;2.10;2.00;;;;;;;-1.62;99.63;101505.78;4988181;28;20030;-75
2024/01/12 04:19:15;;;;;;;2.30;2.20;;;;;;;-1.63;100.00;101496.19;4989970;28;20026;-75
2024/01/12 04:21:40;;;;;;;1.98;1.88;;;;;;;-1.68;99.54;101505.56;4981272;28;20462;-77
2024/01/12 04:24:06;;;;;;;2.30;2.20;;;;;;;-1.75;99.71;101500.91;4971729;28;20521;-78
2024/01/12 04:26:31;;;;;;;2.10;2.00;;;;;;;-1.81;99.67;101498.03;4971685;28;20041;-76
2024/01/12 04:28:56;;;;;;;2.10;2.00;;;;;;;-1.83;99.60;101510.16;4981772;28;21264;-78
2024/01/12 04:31:22;;;;;;;2.20;2.10;;;;;;;-1.92;99.76;101508.06;4988555;28;20034;-73
2024/01/12 04:33:47;;;;;;;2.10;2.00;;;;;;;-2.00;100.00;101505.97;4989831;28;20034;-75
2024/01/12 04:36:13;;;;;;;2.40;2.30;;;;;;;-2.00;100.00;101511.16;4988274;28;20568;-74
2024/01/12 04:38:39;;;;;;;2.00;1.90;;;;;;;-2.03;99.73;101526.69;4988873;28;20027;-75
2024/01/12 04:41:04;;;;;;;2.03;1.92;;;;;;;-2.07;100.00;101520.47;4955047;28;20037;-77
2024/01/12 04:43:30;;;;;;;2.13;2.03;;;;;;;-2.08;100.00;101530.81;4972998;28;20030;-76
2024/01/12 04:45:55;;;;;;;2.20;2.10;;;;;;;-2.09;100.00;101531.66;4969872;28;20030;-79
2024/01/12 04:48:20;;;;;;;2.28;2.17;;;;;;;-2.10;100.00;101528.16;4971103;28;20026;-78
2024/01/12 04:50:46;;;;;;;2.20;2.10;;;;;;;-2.13;99.94;101519.31;4972247;28;20581;-80
2024/01/12 04:53:11;;;;;;;2.40;2.30;;;;;;;-2.09;100.00;101516.88;4973395;28;20082;-78
2024/01/12 04:55:37;;;;;;;2.35;2.25;;;;;;;-2.42;99.91;101465.97;4998340;28;20397;-76
2024/01/12 04:58:03;;;;;;;2.50;2.40;;;;;;;-2.09;100.00;101510.81;4995890;28;20050;-78
2024/01/12 05:00:30;;;;;;;2.30;2.20;;;;;;;-2.06;100.00;101526.56;5008440;28;20113;-75
2024/01/12 05:02:55;;;;;;;2.30;2.20;;;;;;;-2.06;100.00;101521.34;5008407;28;20038;-76
2024/01/12 05:05:22;;;;;;;2.30;2.20;;;;;;;-2.07;100.00;101527.38;4990454;28;20497;-78
2024/01/12 05:07:47;;;;;;;2.30;2.20;;;;;;;-2.05;100.00;101533.53;4987750;28;20041;-78
2024/01/12 05:10:13;;;;;;;2.30;2.20;;;;;;;-2.06;100.00;101523.97;4989556;28;20488;-77
2024/01/12 05:12:38;;;;;;;2.20;2.10;;;;;;;-2.06;100.00;101521.34;4986048;28;20030;-78
2024/01/12 05:15:05;;;;;;;2.20;2.10;;;;;;;-2.09;100.00;101527.31;4992386;28;20721;-77
2024/01/12 05:17:31;;;;;;;2.20;2.10;;;;;;;-2.10;100.00;101532.47;4990883;28;20038;-77
2024/01/12 05:19:58;;;;;;;2.22;2.13;;;;;;;-2.08;100.00;101531.72;4990176;28;20102;-78
2024/01/12 05:22:24;;;;;;;2.30;2.20;;;;;;;-2.07;100.00;101535.19;4988887;28;20030;-78
2024/01/12 05:24:49;;;;;;;2.30;2.20;;;;;;;-2.06;100.00;101539.59;4986773;28;20041;-66
2024/01/12 05:27:14;;;;;;;2.30;2.20;;;;;;;-2.04;100.00;101533.63;4986908;28;20034;-65
2024/01/12 05:29:40;;;;;;;2.40;2.30;;;;;;;-2.04;100.00;101540.56;4989342;28;20026;-65
2024/01/12 05:32:05;;;;;;;2.30;2.20;;;;;;;-2.04;100.00;101541.44;4986811;28;20773;-66
2024/01/12 05:34:31;;;;;;;2.20;2.10;;;;;;;-2.37;100.00;101502.66;4988068;28;20026;-66
2024/01/12 05:36:56;;;;;;;2.20;2.10;;;;;;;-2.06;100.00;101542.22;4988409;28;20038;-65
2024/01/12 05:39:22;;;;;;;2.20;2.10;;;;;;;-2.11;100.00;101548.94;4969598;28;20137;-66
2024/01/12 05:41:47;;;;;;;2.20;2.10;;;;;;;-2.10;100.00;101548.09;4974582;28;20164;-65
2024/01/12 05:44:12;;;;;;;2.45;2.35;;;;;;;-2.40;100.00;101492.97;4970717;28;20034;-65
2024/01/12 05:46:40;;;;;;;2.00;1.90;;;;;;;-2.15;100.00;101541.81;4986488;28;20038;-65
2024/01/12 05:49:06;;;;;;;2.30;2.20;;;;;;;-2.18;100.00;101545.19;4986656;28;20034;-65
2024/01/12 05:51:31;;;;;;;2.30;2.20;;;;;;;-2.21;100.00;101549.38;4968138;28;20027;-64
2024/01/12 05:53:56;;;;;;;2.30;2.20;;;;;;;-2.19;100.00;101551.22;4967963;28;20031;-65
2024/01/12 05:56:23;;;;;;;2.00;1.90;;;;;;;-2.17;100.00;101543.44;4958719;28;20055;-65
2024/01/12 05:58:48;;;;;;;2.20;2.10;;;;;;;-2.19;100.00;101550.34;4948381;28;20061;-66
2024/01/12 06:01:14;;;;;;;2.30;2.20;;;;;;;-2.20;100.00;101554.66;4941564;28;20519;-65
2024/01/12 06:03:39;;;;;;;2.13;2.03;;;;;;;-2.21;100.00;101551.97;4930245;29;20050;-65
2024/01/12 06:06:04;;;;;;;2.20;2.10;;;;;;;-2.23;100.00;101553.63;4930149;29;20115;-66
2024/01/12 06:08:30;;;;;;;2.10;2.00;;;;;;;-2.50;100.00;101489.94;4948034;29;20451;-65
2024/01/12 06:10:55;;;;;;;2.30;2.20;;;;;;;-2.32;100.00;101527.19;4950829;29;20035;-65
2024/01/12 06:13:21;;;;;;;2.30;2.20;;;;;;;-2.35;100.00;101511.41;4947087;28;20035;-66
2024/01/12 06:15:46;;;;;;;2.30;2.20;;;;;;;-2.33;100.00;101509.75;4944433;29;20020;-65
2024/01/12 06:18:11;;;;;;;2.00;1.90;;;;;;;-2.77;100.00;101443.63;4931587;29;20210;-65
2024/01/12 06:20:37;;;;;;;2.40;2.30;;;;;;;-2.37;100.00;101524.38;4934042;29;20102;-66
2024/01/12 06:23:02;;;;;;;2.20;2.10;;;;;;;-2.38;100.00;101535.63;4914002;29;20034;-65
2024/01/12 06:25:29;;;;;;;2.20;2.10;;;;;;;-2.43;100.00;101528.44;4951470;28;20033;-65
2024/01/12 06:27:55;;;;;;;2.35;2.25;;;;;;;-2.40;100.00;101538.97;4947399;29;20016;-65
2024/01/12 06:30:20;;;;;;;2.30;2.20;;;;;;;-2.46;100.00;101523.09;4950848;28;20371;-65
2024/01/12 06:32:46;;;;;;;2.30;2.20;;;;;;;-2.41;100.00;101532.91;4935656;29;20031;-65
2024/01/12 06:35:11;;;;;;;2.20;2.10;;;;;;;-2.41;100.00;101539.81;4944347;29;20027;-77
2024/01/12 06:37:37;;;;;;;2.10;2.00;;;;;;;-2.45;100.00;101545.69;4949007;29;20685;-75
2024/01/12 06:40:04;;;;;;;2.40;2.30;;;;;;;-2.47;100.00;101565.59;4949132;29;20090;-76
2024/01/12 06:42:30;;;;;;;2.30;2.20;;;;;;;-2.52;100.00;101559.28;4947438;29;20059;-76
2024/01/12 06:44:56;;;;;;;2.30;2.20;;;;;;;-2.84;100.00;101511.91;4946055;29;20074;-74
2024/01/12 06:47:21;;;;;;;2.20;2.10;;;;;;;-2.61;100.00;101538.03;4947480;29;20066;-75
2024/01/12 06:49:47;;;;;;;2.30;2.20;;;;;;;-2.61;100.00;101540.66;4948326;29;20693;-76
2024/01/12 06:52:13;;;;;;;2.30;2.20;;;;;;;-2.64;100.00;101543.13;4945585;29;20098;-75
2024/01/12 06:54:43;;;;;;;2.30;2.20;;;;;;;-2.65;100.00;101544.81;4928903;29;20070;-77
2024/01/12 06:57:08;;;;;;;2.30;2.20;;;;;;;-2.70;100.00;101544.63;4938767;28;20054;-75
2024/01/12 06:59:33;;;;;;;2.40;2.30;;;;;;;-2.70;100.00;101552.44;4963890;28;20026;-74
2024/01/12 07:01:59;;;;;;;2.20;2.10;;;;;;;-2.71;100.00;101553.28;4952750;28;20026;-77
2024/01/12 07:04:24;;;;;;;2.25;2.15;;;;;;;-3.00;100.00;101527.63;4986389;28;20034;-74
2024/01/12 07:06:51;;;;;;;2.38;2.28;;;;;;;-2.74;100.00;101563.56;4965853;28;20057;-75
2024/01/12 07:09:17;;;;;;;2.20;2.10;;;;;;;-2.77;100.00;101558.19;4949266;28;20031;-75
2024/01/12 07:11:43;;;;;;;2.22;2.13;;;;;;;-2.79;100.00;101561.56;4931052;29;20502;-76
2024/01/12 07:14:13;;;;;;;2.30;2.20;;;;;;;-2.81;100.00;101564.09;4948559;28;20031;-76
2024/01/12 07:16:38;;;;;;;2.50;2.40;;;;;;;-2.98;100.00;101539.00;4947907;29;20096;-75
2024/01/12 07:19:04;;;;;;;2.30;2.20;;;;;;;-2.82;100.00;101556.22;4962525;28;20027;-75
2024/01/12 07:21:29;;;;;;;2.40;2.30;;;;;;;-2.80;100.00;101560.66;4968007;28;20030;-77
2024/01/12 07:23:55;;;;;;;2.53;2.42;;;;;;;-2.83;100.00;101563.13;4957400;28;20862;-75
2024/01/12 07:26:20;;;;;;;2.40;2.30;;;;;;;-2.82;100.00;101559.69;4966603;28;20034;-77
2024/01/12 07:28:46;;;;;;;2.10;2.00;;;;;;;-2.83;100.00;101568.34;4967623;28;20027;-77
2024/01/12 07:31:11;;;;;;;2.40;2.30;;;;;;;-3.12;100.00;101511.47;4968251;28;20034;-76
2024/01/12 07:33:37;;;;;;;2.40;2.30;;;;;;;-2.88;100.00;101563.72;4963550;28;20038;-76
2024/01/12 07:36:02;;;;;;;2.40;2.30;;;;;;;-2.89;100.00;101565.47;4974559;28;20083;-75
2024/01/12 07:38:28;;;;;;;2.35;2.25;;;;;;;-2.94;100.00;101558.25;4968363;28;20027;-74
2024/01/12 07:40:53;;;;;;;2.33;2.22;;;;;;;-3.50;100.00;101468.91;4965354;28;20482;-69
2024/01/12 07:43:19;;;;;;;2.40;2.30;;;;;;;-2.89;100.00;101565.47;4967577;28;20022;-76
2024/01/12 07:45:45;;;;;;;2.50;2.40;;;;;;;-2.86;100.00;101568.19;4973001;28;20073;-77
2024/01/12 07:48:10;;;;;;;2.35;2.25;;;;;;;-3.18;100.00;101526.78;4968405;28;20030;-77
2024/01/12 07:50:36;;;;;;;2.40;2.30;;;;;;;-2.87;100.00;101581.16;4966661;28;20038;-75
2024/01/12 07:53:02;;;;;;;2.50;2.40;;;;;;;-2.86;100.00;101583.81;4967432;28;20424;-77
2024/01/12 07:55:27;;;;;;;2.40;2.30;;;;;;;-2.82;100.00;101583.13;4958879;28;20038;-78
2024/01/12 07:57:53;;;;;;;2.50;2.40;;;;;;;-2.76;100.00;101585.13;4943233;28;20055;-72
2024/01/12 08:00:19;;;;;;;2.42;2.33;;;;;;;-2.51;100.00;101588.00;4931178;29;20110;-75
2024/01/12 08:02:44;;;;;;;2.35;2.25;;;;;;;-1.98;100.00;101585.13;4949753;28;20166;-79
2024/01/12 08:05:10;;;;;;;2.40;2.30;;;;;;;-1.56;100.00;101547.75;4948295;28;20172;-76
2024/01/12 08:07:36;;;;;;;2.50;2.40;;;;;;;-1.21;100.00;101583.97;4943320;29;20031;-77
2024/01/12 08:10:02;;;;;;;2.20;2.10;;;;;;;-1.12;100.00;101578.22;4928926;29;20519;-75
2024/01/12 08:12:28;;;;;;;2.15;2.05;;;;;;;-0.78;100.00;101595.25;4934668;29;20027;-76
2024/01/12 08:14:53;;;;;;;2.05;1.95;;;;;;;-0.58;100.00;101596.88;4946584;29;20046;-75
2024/01/12 08:17:19;;;;;;;2.17;2.08;;;;;;;-0.16;100.00;101587.97;4937562;29;20026;-77
2024/01/12 08:19:46;;;;;;;2.10;2.00;;;;;;;0.26;100.00;101598.13;4948037;29;20035;-77
2024/01/12 08:22:12;;;;;;;1.95;1.85;;;;;;;0.46;100.00;101607.53;4964797;28;20035;-78
2024/01/12 08:24:39;;;;;;;1.95;1.85;;;;;;;0.23;98.62;101546.56;4958988;28;20152;-75
2024/01/12 08:27:05;;;;;;;1.98;1.88;;;;;;;0.19;94.31;101564.75;4949923;29;20046;-78
2024/01/12 08:29:30;;;;;;;2.00;1.90;;;;;;;0.28;92.34;101597.31;4946932;28;20024;-79
2024/01/12 08:31:58;;;;;;;1.80;1.80;;;;;;;0.09;91.23;101604.50;4949955;28;20756;-79
2024/01/12 08:34:24;;;;;;;2.20;2.10;;;;;;;-0.19;90.21;101598.31;4930317;29;20042;-77
2024/01/12 08:36:49;;;;;;;2.10;2.00;;;;;;;-0.23;90.14;101595.56;4928841;29;20027;-81
2024/01/12 08:39:15;;;;;;;1.85;1.80;;;;;;;-0.16;89.55;101603.66;4948611;29;20177;-78
2024/01/12 08:41:40;;;;;;;2.00;1.90;;;;;;;-0.19;89.75;101606.16;4948046;29;20031;-75
2024/01/12 08:44:07;;;;;;;2.00;1.90;;;;;;;-0.24;89.56;101607.72;4947551;29;20031;-81
2024/01/12 08:46:32;;;;;;;2.00;1.90;;;;;;;-0.27;89.52;101607.63;4950048;28;20482;-78
2024/01/12 08:48:58;;;;;;;2.00;1.90;;;;;;;-0.41;89.48;101567.00;4936761;29;20038;-78
2024/01/12 08:51:24;;;;;;;1.80;1.77;;;;;;;-0.66;89.00;101532.97;4929913;29;20032;-78
2024/01/12 08:53:49;;;;;;;1.90;1.80;;;;;;;-0.08;89.28;101615.25;4945268;29;20061;-76
2024/01/12 08:56:15;;;;;;;1.73;1.70;;;;;;;-0.26;89.41;101572.78;4934177;29;20059;-77
2024/01/12 08:58:40;;;;;;;1.90;1.80;;;;;;;0.75;94.38;101622.47;4946093;29;20102;-77
2024/01/12 09:01:06;;;;;;;1.52;1.52;;;;;;;2.31;91.93;101578.94;4946263;29;20043;-79
2024/01/12 09:03:31;;;;;;;1.58;1.58;;;;;;;4.15;76.66;101620.78;4948669;29;20031;-79
2024/01/12 09:05:57;;;;;;;1.30;1.30;;;;;;;5.52;65.49;101623.00;4948835;29;20035;-79
2024/01/12 09:08:22;;;;;;;1.33;1.33;;;;;;;6.81;60.57;101615.63;4904587;28;20551;-75
2024/01/12 09:10:48;;;;;;;1.40;1.40;;;;;;;7.82;56.33;101622.41;4957259;28;20022;-80
2024/01/12 09:13:14;;;;;;;1.00;1.00;;;;;;;9.12;52.06;101609.41;4949551;29;20107;-76
2024/01/12 09:15:40;;;;;;;0.77;0.77;;;;;;;9.51;47.29;101614.63;4948571;29;20110;-78
2024/01/12 09:18:06;;;;;;;0.85;0.85;;;;;;;9.69;46.03;101565.84;4956379;28;20149;-81
2024/01/12 09:20:32;;;;;;;0.90;0.90;;;;;;;10.18;44.63;101559.44;4942905;29;20037;-75
2024/01/12 09:22:58;;;;;;;0.90;0.90;;;;;;;10.18;43.43;101589.53;4949640;28;20035;-76
2024/01/12 09:25:24;;;;;;;0.90;0.90;;;;;;;10.54;43.56;101599.06;4944268;29;20043;-73
2024/01/12 09:27:50;;;;;;;0.90;0.90;;;;;;;10.73;41.66;101616.66;4942529;28;20030;-73
2024/01/12 09:30:16;;;;;;;1.00;1.00;;;;;;;11.31;43.03;101619.69;4932450;29;20062;-74
2024/01/12 09:32:41;;;;;;;0.90;0.90;;;;;;;11.44;42.15;101565.38;4942753;28;20058;-73
2024/01/12 09:35:07;;;;;;;0.80;0.80;;;;;;;12.39;40.97;101621.03;4945485;29;20031;-73
2024/01/12 09:37:32;;;;;;;0.90;0.90;;;;;;;12.11;39.25;101608.09;4946021;29;20544;-74
2024/01/12 09:39:57;;;;;;;0.82;0.82;;;;;;;12.27;39.58;101626.56;4932691;29;20038;-74
2024/01/12 09:42:24;;;;;;;0.80;0.80;;;;;;;12.43;39.80;101630.75;4951420;28;20027;-70
2024/01/12 09:44:52;;;;;;;0.85;0.85;;;;;;;12.77;39.28;101624.00;4950422;28;20035;-75
2024/01/12 09:47:17;;;;;;;0.90;0.90;;;;;;;12.35;37.94;101592.63;4950240;28;20035;-76
2024/01/12 09:49:43;;;;;;;0.80;0.80;;;;;;;12.20;38.18;101560.84;4949883;29;20079;-76
2024/01/12 09:52:09;;;;;;;0.80;0.80;;;;;;;12.89;38.29;101626.47;4921367;29;20090;-76
2024/01/12 09:54:35;;;;;;;0.77;0.77;;;;;;;13.35;37.73;101569.56;4966491;28;20522;-76
2024/01/12 09:57:03;;;;;;;0.77;0.77;;;;;;;13.62;37.41;101612.72;4955630;28;20058;-77
2024/01/12 09:59:28;;;;;;;0.80;0.80;;;;;;;13.49;36.40;101615.66;4954905;29;20027;-75
2024/01/12 10:01:56;;;;;;;0.80;0.80;;;;;;;13.75;37.36;101616.00;4970016;28;20086;-76
2024/01/12 10:04:22;;;;;;;0.77;0.77;;;;;;;13.12;37.25;101631.47;4956446;28;20095;-76
2024/01/12 10:06:47;;;;;;;0.80;0.80;;;;;;;13.21;38.45;101621.47;4931893;29;20038;-78
2024/01/12 10:09:13;;;;;;;0.88;0.88;;;;;;;13.47;36.78;101604.09;4936974;29;20023;-76
2024/01/12 10:11:40;;;;;;;0.80;0.80;;;;;;;13.69;36.75;101597.44;4934815;29;20035;-78
2024/01/12 10:14:06;;;;;;;0.85;0.85;;;;;;;13.93;36.68;101602.25;4929031;29;20035;-75
2024/01/12 10:16:31;;;;;;;0.90;0.90;;;;;;;13.99;36.59;101591.41;4913671;29;20032;-77
2024/01/12 10:18:58;;;;;;;0.80;0.80;;;;;;;14.06;35.94;101609.09;4932438;29;20619;-76
2024/01/12 10:21:27;;;;;;;0.80;0.80;;;;;;;13.76;35.93;101601.72;4929524;29;20447;-76
2024/01/12 10:24:02;;;;;;;0.80;0.80;;;;;;;13.76;36.02;101593.69;4932496;29;20106;-76
2024/01/12 10:26:28;;;;;;;0.80;0.80;;;;;;;13.70;35.97;101588.47;4948114;28;20034;-78
2024/01/12 10:28:54;;;;;;;0.80;0.80;;;;;;;13.29;36.75;101605.34;4947447;29;20039;-76
2024/01/12 10:31:20;;;;;;;0.90;0.90;;;;;;;13.45;36.65;101595.22;4949119;28;20118;-75
2024/01/12 10:33:46;;;;;;;0.70;0.70;;;;;;;13.38;38.61;101601.63;4943663;28;20110;-77
2024/01/12 10:36:18;;;;;;;0.80;0.80;;;;;;;13.70;36.55;101589.38;4949955;28;20042;-75
2024/01/12 10:38:45;;;;;;;0.80;0.80;;;;;;;13.92;37.40;101595.16;4945534;29;20023;-83
2024/01/12 10:41:11;;;;;;;0.88;0.88;;;;;;;13.57;35.86;101603.00;4929660;29;20102;-75
2024/01/12 10:43:38;;;;;;;0.80;0.80;;;;;;;13.56;36.33;101599.44;4929035;29;20036;-76
2024/01/12 10:46:21;;;;;;;0.70;0.70;;;;;;;13.05;37.43;101545.19;4941317;29;20481;-73
2024/01/12 10:49:17;;;;;;;0.80;0.80;;;;;;;13.06;36.82;101603.03;4931466;29;20510;-78
2024/01/12 10:51:53;;;;;;;0.80;0.80;;;;;;;13.32;38.01;101601.72;4919122;29;20103;-76
2024/01/12 10:54:25;;;;;;;0.80;0.80;;;;;;;12.67;38.01;101598.34;4924246;29;20051;-76
2024/01/12 10:56:51;;;;;;;0.80;0.80;;;;;;;12.75;38.12;101556.38;4929396;29;20162;-77
2024/01/12 10:59:18;;;;;;;0.80;0.80;;;;;;;13.35;37.18;101596.31;4931319;28;20501;-78
2024/01/12 11:01:44;;;;;;;0.70;0.70;;;;;;;13.53;36.96;101590.59;4950217;28;20086;-76
2024/01/12 11:04:11;;;;;;;0.80;0.80;;;;;;;13.07;37.25;101555.84;4966576;28;20030;-78
2024/01/12 11:06:39;;;;;;;0.80;0.80;;;;;;;13.35;37.34;101589.16;4956709;28;20027;-77
2024/01/12 11:09:07;;;;;;;0.70;0.70;;;;;;;13.12;37.35;101578.91;4953982;28;20027;-78
2024/01/12 11:11:40;;;;;;;0.70;0.70;;;;;;;12.84;37.74;101585.63;4946044;29;20038;-78
2024/01/12 11:14:07;;;;;;;0.80;0.80;;;;;;;12.77;36.79;101591.94;4930304;29;20028;-67
2024/01/12 11:16:32;;;;;;;0.80;0.80;;;;;;;12.42;37.96;101570.25;4928961;29;20043;-67